createdAt,value
2022-12-25T00:02:00.496Z,101549.03
2022-12-25T00:04:27.862Z,101546.28
2022-12-25T00:06:55.788Z,101557.38
2022-12-25T00:09:23.149Z,101551.13
2022-12-25T00:11:52.053Z,101548.97
2022-12-25T00:14:21.500Z,101549.00
2022-12-25T00:16:48.965Z,101554.91
2022-12-25T00:19:16.446Z,101552.75
2022-12-25T00:21:43.815Z,101556.81
2022-12-25T00:24:11.150Z,101558.13
2022-12-25T00:26:39.212Z,101551.66
2022-12-25T00:29:06.603Z,101554.31
2022-12-25T00:31:35.148Z,101554.63
2022-12-25T00:34:02.543Z,101549.50
2022-12-25T00:36:37.746Z,101549.81
2022-12-25T00:39:07.319Z,101548.19
2022-12-25T00:41:53.218Z,101550.63
2022-12-25T00:44:20.635Z,101545.75
2022-12-25T00:46:47.957Z,101546.56
2022-12-25T00:49:15.475Z,101542.53
2022-12-25T00:51:42.852Z,101550.66
2022-12-25T00:54:10.266Z,101547.41
2022-12-25T00:56:37.600Z,101546.59
2022-12-25T00:59:04.956Z,101555.00
2022-12-25T01:01:33.736Z,101552.81
2022-12-25T01:04:01.243Z,101555.53
2022-12-25T01:06:28.875Z,101550.41
2022-12-25T01:09:18.723Z,101553.13
2022-12-25T01:11:49.229Z,101545.56
2022-12-25T01:14:16.960Z,101553.66
2022-12-25T01:16:44.709Z,101554.47
2022-12-25T01:19:12.219Z,101559.88
2022-12-25T01:21:39.618Z,101558.50
2022-12-25T01:24:07.243Z,101558.50
2022-12-25T01:26:34.542Z,101561.72
2022-12-25T01:29:02.585Z,101568.50
2022-12-25T01:31:29.939Z,101558.75
2022-12-25T01:33:57.341Z,101573.59
2022-12-25T01:36:26.570Z,101568.47
2022-12-25T01:38:54.592Z,101571.44
2022-12-25T01:41:24.709Z,101570.63
2022-12-25T01:44:14.813Z,101579.00
2022-12-25T01:46:45.852Z,101575.22
2022-12-25T01:49:23.618Z,101573.88
2022-12-25T01:52:03.177Z,101569.53
2022-12-25T01:54:34.810Z,101564.69
2022-12-25T01:57:06.700Z,101573.09
2022-12-25T01:59:34.371Z,101563.63
2022-12-25T02:02:01.888Z,101562.28
2022-12-25T02:04:38.933Z,101563.34
2022-12-25T02:07:09.776Z,101565.78
2022-12-25T02:09:38.152Z,101565.22
2022-12-25T02:12:07.468Z,101569.28
2022-12-25T02:14:37.669Z,101564.41
2022-12-25T02:17:29.565Z,101571.41
2022-12-25T02:20:13.914Z,101572.75
2022-12-25T02:22:58.016Z,101573.84
2022-12-25T02:25:33.350Z,101580.59
2022-12-25T02:28:14.878Z,101572.22
2022-12-25T02:31:09.026Z,101577.38
2022-12-25T02:34:04.672Z,101574.91
2022-12-25T02:37:10.803Z,101579.25
2022-12-25T02:39:56.392Z,101568.66
2022-12-25T02:42:47.696Z,101573.81
2022-12-25T02:45:38.812Z,101574.91
2022-12-25T02:48:37.403Z,101569.50
2022-12-25T02:51:26.242Z,101570.28
2022-12-25T02:54:15.491Z,101575.16
2022-12-25T02:57:06.316Z,101570.56
2022-12-25T02:59:56.271Z,101575.63
2022-12-25T03:02:46.832Z,101575.66
2022-12-25T03:05:35.895Z,101573.53
2022-12-25T03:08:07.542Z,101574.03
2022-12-25T03:10:58.603Z,101579.72
2022-12-25T03:13:34.347Z,101582.66
2022-12-25T03:16:20.223Z,101573.72
2022-12-25T03:18:47.885Z,101569.97
2022-12-25T03:21:33.643Z,101574.31
2022-12-25T03:24:20.682Z,101577.28
2022-12-25T03:26:58.020Z,101575.09
2022-12-25T03:29:49.465Z,101573.78
2022-12-25T03:32:37.635Z,101578.91
2022-12-25T03:35:25.626Z,101575.66
2022-12-25T03:38:25.640Z,101570.88
2022-12-25T03:41:36.863Z,101567.63
2022-12-25T03:44:40.841Z,101564.38
2022-12-25T03:47:31.301Z,101564.66
2022-12-25T03:50:29.678Z,101570.06
2022-12-25T03:53:20.091Z,101570.06
2022-12-25T03:56:07.602Z,101569.78
2022-12-25T03:58:53.816Z,101566.81
2022-12-25T04:01:39.927Z,101567.66
2022-12-25T04:04:26.031Z,101570.91
2022-12-25T04:07:12.095Z,101570.09
2022-12-25T04:09:58.168Z,101564.72
2022-12-25T04:12:44.132Z,101575.78
2022-12-25T04:15:30.921Z,101579.78
2022-12-25T04:18:17.226Z,101576.56
2022-12-25T04:21:03.029Z,101576.25
2022-12-25T04:23:49.069Z,101556.50
2022-12-25T04:26:35.055Z,101579.22
2022-12-25T04:29:21.360Z,101573.22
2022-12-25T04:32:07.668Z,101582.66
2022-12-25T04:34:53.840Z,101585.09
2022-12-25T04:37:21.246Z,101588.59
2022-12-25T04:39:48.656Z,101585.56
2022-12-25T04:42:16.761Z,101593.66
2022-12-25T04:44:44.205Z,101589.56
2022-12-25T04:47:12.944Z,101598.47
2022-12-25T04:49:40.564Z,101595.50
2022-12-25T04:52:07.985Z,101598.22
2022-12-25T04:54:53.714Z,101590.66
2022-12-25T04:57:39.877Z,101602.78
2022-12-25T05:00:08.064Z,101594.69
2022-12-25T05:02:38.453Z,101601.16
2022-12-25T05:05:06.211Z,101607.66
2022-12-25T05:07:33.901Z,101610.09
2022-12-25T05:10:04.606Z,101609.78
2022-12-25T05:12:31.980Z,101610.34
2022-12-25T05:14:59.300Z,101616.56
2022-12-25T05:17:28.101Z,101615.22
2022-12-25T05:19:55.436Z,101613.88
2022-12-25T05:22:25.526Z,101615.56
2022-12-25T05:24:52.905Z,101617.19
2022-12-25T05:27:20.247Z,101620.19
2022-12-25T05:29:47.666Z,101618.03
2022-12-25T05:32:15.209Z,101604.53
2022-12-25T05:34:42.556Z,101602.38
2022-12-25T05:37:09.912Z,101609.94
2022-12-25T05:39:37.175Z,101609.13
2022-12-25T05:42:04.568Z,101612.09
2022-12-25T05:44:31.966Z,101621.53
2022-12-25T05:46:59.375Z,101617.19
2022-12-25T05:49:26.735Z,101610.97
2022-12-25T05:51:54.099Z,101613.13
2022-12-25T05:54:21.461Z,101610.19
2022-12-25T05:56:48.723Z,101614.75
2022-12-25T05:59:16.122Z,101621.00
2022-12-25T06:01:43.512Z,101620.72
2022-12-25T06:04:13.046Z,101621.72
2022-12-25T06:06:41.031Z,101623.81
2022-12-25T06:09:09.168Z,101623.72
2022-12-25T06:11:36.515Z,101631.56
2022-12-25T06:14:03.843Z,101644.53
2022-12-25T06:16:37.735Z,101640.28
2022-12-25T06:19:05.683Z,101637.91
2022-12-25T06:21:33.050Z,101638.47
2022-12-25T06:24:01.365Z,101642.06
2022-12-25T06:26:28.930Z,101639.38
2022-12-25T06:28:56.289Z,101644.53
2022-12-25T06:31:24.301Z,101647.25
2022-12-25T06:33:51.849Z,101643.75
2022-12-25T06:36:24.646Z,101645.66
2022-12-25T06:38:52.756Z,101651.91
2022-12-25T06:41:25.259Z,101655.69
2022-12-25T06:43:54.628Z,101654.91
2022-12-25T06:46:23.637Z,101652.75
2022-12-25T06:48:51.535Z,101662.47
2022-12-25T06:51:21.387Z,101658.69
2022-12-25T06:53:49.774Z,101661.97
2022-12-25T06:56:19.867Z,101661.41
2022-12-25T06:58:51.337Z,101660.09
2022-12-25T07:01:47.686Z,101654.16
2022-12-25T07:04:28.021Z,101662.56
2022-12-25T07:06:55.317Z,101662.56
2022-12-25T07:09:22.648Z,101666.06
2022-12-25T07:11:49.986Z,101666.34
2022-12-25T07:14:23.702Z,101675.03
2022-12-25T07:16:52.073Z,101665.84
2022-12-25T07:19:19.467Z,101675.03
2022-12-25T07:21:47.357Z,101675.84
2022-12-25T07:24:22.224Z,101678.78
2022-12-25T07:26:51.223Z,101678.78
2022-12-25T07:29:19.650Z,101674.75
2022-12-25T07:31:47.176Z,101683.69
2022-12-25T07:34:14.529Z,101675.03
2022-12-25T07:36:41.820Z,101683.38
2022-12-25T07:39:10.859Z,101685.00
2022-12-25T07:41:38.355Z,101700.97
2022-12-25T07:44:16.081Z,101703.13
2022-12-25T07:46:43.600Z,101700.72
2022-12-25T07:49:11.392Z,101706.16
2022-12-25T07:51:38.728Z,101708.84
2022-12-25T07:54:06.435Z,101710.22
2022-12-25T07:56:33.755Z,101722.09
2022-12-25T07:59:01.100Z,101719.66
2022-12-25T08:01:29.725Z,101725.88
2022-12-25T08:03:59.985Z,101730.50
2022-12-25T08:06:31.437Z,101735.09
2022-12-25T08:09:07.753Z,101734.81
2022-12-25T08:11:35.257Z,101731.88
2022-12-25T08:14:06.136Z,101742.94
2022-12-25T08:16:33.493Z,101742.13
2022-12-25T08:19:03.755Z,101747.03
2022-12-25T08:21:31.096Z,101746.50
2022-12-25T08:23:58.647Z,101745.13
2022-12-25T08:26:26.021Z,101738.91
2022-12-25T08:28:53.450Z,101738.38
2022-12-25T08:31:24.121Z,101734.31
2022-12-25T08:33:56.750Z,101733.75
2022-12-25T08:36:24.371Z,101741.88
2022-12-25T08:38:54.572Z,101745.13
2022-12-25T08:41:26.509Z,101752.94
2022-12-25T08:43:53.964Z,101760.53
2022-12-25T08:46:21.464Z,101764.63
2022-12-25T08:48:50.005Z,101756.50
2022-12-25T08:51:20.860Z,101766.50
2022-12-25T08:53:50.080Z,101768.09
2022-12-25T08:56:18.991Z,101774.03
2022-12-25T08:58:46.551Z,101780.56
2022-12-25T09:01:14.177Z,101784.59
2022-12-25T09:03:43.052Z,101793.00
2022-12-25T09:06:13.823Z,101786.22
2022-12-25T09:08:48.017Z,101798.13
2022-12-25T09:11:17.880Z,101792.94
2022-12-25T09:13:45.321Z,101798.13
2022-12-25T09:16:16.425Z,101799.72
2022-12-25T09:18:43.884Z,101791.56
2022-12-25T09:21:13.798Z,101798.03
2022-12-25T09:23:41.689Z,101803.47
2022-12-25T09:26:12.987Z,101799.94
2022-12-25T09:28:45.168Z,101801.25
2022-12-25T09:31:16.156Z,101803.38
2022-12-25T09:33:43.568Z,101796.88
2022-12-25T09:36:11.363Z,101802.53
2022-12-25T09:38:41.901Z,101795.72
2022-12-25T09:41:30.958Z,101794.06
2022-12-25T09:44:08.204Z,101797.81
2022-12-25T09:46:42.143Z,101801.53
2022-12-25T09:49:32.992Z,101809.34
2022-12-25T09:52:05.513Z,101806.25
2022-12-25T09:54:47.239Z,101801.00
2022-12-25T09:57:15.410Z,101803.97
2022-12-25T09:59:50.341Z,101805.22
2022-12-25T10:02:30.190Z,101805.19
2022-12-25T10:05:17.430Z,101806.22
2022-12-25T10:07:55.127Z,101800.75
2022-12-25T10:10:43.560Z,101803.69
2022-12-25T10:13:52.976Z,101804.22
2022-12-25T10:16:39.081Z,101806.38
2022-12-25T10:19:34.265Z,101812.28
2022-12-25T10:22:10.367Z,101803.78
2022-12-25T10:24:46.540Z,101812.38
2022-12-25T10:27:30.055Z,101803.13
2022-12-25T10:29:59.223Z,101788.97
2022-12-25T10:32:26.540Z,101796.13
2022-12-25T10:34:54.235Z,101801.97
2022-12-25T10:37:24.813Z,101800.91
2022-12-25T10:39:52.161Z,101800.84
2022-12-25T10:42:19.407Z,101792.91
2022-12-25T10:44:56.684Z,101795.34
2022-12-25T10:47:26.943Z,101799.69
2022-12-25T10:49:54.683Z,101792.91
2022-12-25T10:52:28.454Z,101798.00
2022-12-25T10:54:56.319Z,101788.69
2022-12-25T10:57:25.971Z,101778.03
2022-12-25T10:59:56.475Z,101784.72
2022-12-25T11:02:29.509Z,101786.34
2022-12-25T11:05:05.143Z,101776.13
2022-12-25T11:07:35.125Z,101770.63
2022-12-25T11:10:17.597Z,101770.03
2022-12-25T11:12:46.110Z,101757.78
2022-12-25T11:15:46.069Z,101760.13
2022-12-25T11:18:19.929Z,101759.19
2022-12-25T11:20:52.866Z,101758.44
2022-12-25T11:23:22.011Z,101749.72
2022-12-25T11:26:08.724Z,101739.25
2022-12-25T11:28:38.938Z,101739.72
2022-12-25T11:31:16.405Z,101743.94
2022-12-25T11:33:56.159Z,101751.94
2022-12-25T11:36:47.647Z,101739.00
2022-12-25T11:39:30.026Z,101743.16
2022-12-25T11:42:16.135Z,101740.19
2022-12-25T11:44:46.328Z,101744.16
2022-12-25T11:47:36.135Z,101736.00
2022-12-25T11:50:20.404Z,101734.44
2022-12-25T11:52:48.613Z,101738.97
2022-12-25T11:55:42.110Z,101732.28
2022-12-25T11:58:22.635Z,101725.50
2022-12-25T12:00:53.452Z,101725.91
2022-12-25T12:03:29.700Z,101725.91
2022-12-25T12:06:03.954Z,101720.28
2022-12-25T12:08:33.023Z,101726.00
2022-12-25T12:11:16.083Z,101728.00
2022-12-25T12:14:31.259Z,101722.28
2022-12-25T12:17:00.224Z,101724.78
2022-12-25T12:19:30.584Z,101715.81
2022-12-25T12:22:01.555Z,101718.44
2022-12-25T12:24:42.052Z,101714.91
2022-12-25T12:27:12.346Z,101702.91
2022-12-25T12:29:50.252Z,101696.97
2022-12-25T12:32:39.240Z,101702.59
2022-12-25T12:35:15.042Z,101697.75
2022-12-25T12:37:46.083Z,101698.44
2022-12-25T12:40:33.219Z,101705.94
2022-12-25T12:43:01.572Z,101703.50
2022-12-25T12:45:37.799Z,101697.75
2022-12-25T12:48:16.735Z,101701.88
2022-12-25T12:50:44.131Z,101706.84
2022-12-25T12:53:23.710Z,101708.13
2022-12-25T12:55:52.624Z,101708.44
2022-12-25T12:58:37.619Z,101713.56
2022-12-25T13:01:24.114Z,101709.66
2022-12-25T13:03:51.497Z,101713.47
2022-12-25T13:06:27.788Z,101712.94
2022-12-25T13:09:18.330Z,101713.56
2022-12-25T13:11:45.888Z,101713.84
2022-12-25T13:14:20.574Z,101722.41
2022-12-25T13:16:51.876Z,101720.00
2022-12-25T13:19:22.230Z,101722.19
2022-12-25T13:22:01.065Z,101718.06
2022-12-25T13:24:33.751Z,101716.97
2022-12-25T13:27:01.910Z,101716.97
2022-12-25T13:29:29.999Z,101718.66
2022-12-25T13:32:02.150Z,101722.81
2022-12-25T13:34:39.318Z,101715.72
2022-12-25T13:37:18.729Z,101725.00
2022-12-25T13:39:54.240Z,101717.72
2022-12-25T13:42:26.144Z,101725.88
2022-12-25T13:45:00.787Z,101725.88
2022-12-25T13:47:39.822Z,101733.84
2022-12-25T13:50:20.627Z,101729.78
2022-12-25T13:52:48.117Z,101730.69
2022-12-25T13:55:21.297Z,101734.00
2022-12-25T13:58:01.138Z,101736.19
2022-12-25T14:00:35.101Z,101727.31
2022-12-25T14:03:04.697Z,101737.38
2022-12-25T14:05:42.371Z,101733.06
2022-12-25T14:08:17.093Z,101737.63
2022-12-25T14:10:48.337Z,101742.22
2022-12-25T14:13:17.927Z,101741.22
2022-12-25T14:15:47.991Z,101732.75
2022-12-25T14:18:17.246Z,101740.91
2022-12-25T14:21:22.275Z,101740.41
2022-12-25T14:23:50.454Z,101735.03
2022-12-25T14:26:32.865Z,101736.72
2022-12-25T14:29:11.201Z,101745.16
2022-12-25T14:31:46.572Z,101741.41
2022-12-25T14:34:18.656Z,101738.97
2022-12-25T14:36:46.600Z,101736.03
2022-12-25T14:39:32.466Z,101739.25
2022-12-25T14:42:01.890Z,101745.28
2022-12-25T14:44:36.876Z,101749.66
2022-12-25T14:47:21.091Z,101746.91
2022-12-25T14:49:48.703Z,101752.63
2022-12-25T14:52:25.299Z,101741.75
2022-12-25T14:54:57.679Z,101751.84
2022-12-25T14:57:34.407Z,101744.28
2022-12-25T15:00:20.699Z,101746.16
2022-12-25T15:02:49.403Z,101742.63
2022-12-25T15:05:43.263Z,101746.75
2022-12-25T15:08:13.418Z,101755.66
2022-12-25T15:13:29.708Z,101755.97
2022-12-25T15:16:14.097Z,101764.63
2022-12-25T15:18:44.693Z,101759.41
2022-12-25T15:21:38.498Z,101757.03
2022-12-25T15:24:06.164Z,101761.66
2022-12-25T15:26:33.627Z,101767.72
2022-12-25T15:29:01.024Z,101766.09
2022-12-25T15:31:31.228Z,101767.78
2022-12-25T15:34:00.997Z,101772.41
2022-12-25T15:36:28.547Z,101768.59
2022-12-25T15:38:56.518Z,101760.19
2022-12-25T15:41:49.520Z,101762.69
2022-12-25T15:44:17.258Z,101766.00
2022-12-25T15:46:46.092Z,101761.88
2022-12-25T15:49:14.667Z,101763.28
2022-12-25T15:51:43.414Z,101770.63
2022-12-25T15:54:11.311Z,101762.97
2022-12-25T15:56:44.991Z,101755.13
2022-12-25T15:59:14.745Z,101760.03
2022-12-25T16:01:46.228Z,101756.72
2022-12-25T16:04:13.818Z,101769.81
2022-12-25T16:06:41.775Z,101765.47
2022-12-25T16:09:14.178Z,101766.38
2022-12-25T16:11:42.066Z,101771.56
2022-12-25T16:14:10.249Z,101769.16
2022-12-25T16:16:38.121Z,101759.69
2022-12-25T16:19:05.825Z,101767.06
2022-12-25T16:21:40.159Z,101774.66
2022-12-25T16:24:08.133Z,101770.88
2022-12-25T16:26:35.698Z,101765.72
2022-12-25T16:29:07.211Z,101760.88
2022-12-25T16:31:36.541Z,101774.41
2022-12-25T16:34:05.755Z,101774.91
2022-12-25T16:36:33.777Z,101775.78
2022-12-25T16:39:01.554Z,101773.06
2022-12-25T16:41:28.931Z,101771.16
2022-12-25T16:43:56.203Z,101770.13
2022-12-25T16:46:23.618Z,101772.50
2022-12-25T16:48:51.038Z,101771.38
2022-12-25T16:51:20.683Z,101766.47
2022-12-25T16:53:48.341Z,101774.91
2022-12-25T16:56:25.548Z,101771.63
2022-12-25T16:58:53.022Z,101774.84
2022-12-25T17:01:23.011Z,101773.00
2022-12-25T17:03:51.048Z,101779.78
2022-12-25T17:06:23.995Z,101784.91
2022-12-25T17:08:52.577Z,101776.25
2022-12-25T17:11:24.340Z,101781.44
2022-12-25T17:13:51.785Z,101772.00
2022-12-25T17:16:22.929Z,101770.34
2022-12-25T17:18:55.066Z,101770.88
2022-12-25T17:21:23.154Z,101779.03
2022-12-25T17:23:50.943Z,101774.63
2022-12-25T17:26:18.370Z,101776.75
2022-12-25T17:28:45.836Z,101783.66
2022-12-25T17:31:14.043Z,101787.25
2022-12-25T17:33:43.463Z,101785.59
2022-12-25T17:36:13.312Z,101781.00
2022-12-25T17:38:40.646Z,101780.72
2022-12-25T17:41:11.867Z,101798.13
2022-12-25T17:43:42.057Z,101790.22
2022-12-25T17:46:24.576Z,101785.91
2022-12-25T17:48:54.538Z,101789.44
2022-12-25T17:51:25.262Z,101782.69
2022-12-25T17:53:55.505Z,101782.38
2022-12-25T17:56:23.599Z,101780.75
2022-12-25T17:58:57.637Z,101785.16
2022-12-25T18:01:27.055Z,101796.03
2022-12-25T18:03:55.307Z,101794.41
2022-12-25T18:06:24.828Z,101797.94
2022-12-25T18:08:55.058Z,101798.44
2022-12-25T18:11:27.621Z,101800.66
2022-12-25T18:13:57.880Z,101786.25
2022-12-25T18:16:27.339Z,101804.22
2022-12-25T18:18:54.783Z,101812.34
2022-12-25T18:21:22.847Z,101813.69
2022-12-25T18:23:50.639Z,101811.66
2022-12-25T18:26:19.446Z,101806.50
2022-12-25T18:28:48.636Z,101808.25
2022-12-25T18:31:19.469Z,101815.84
2022-12-25T18:33:47.384Z,101814.81
2022-12-25T18:36:18.049Z,101813.94
2022-12-25T18:38:45.640Z,101805.53
2022-12-25T18:41:13.213Z,101797.13
2022-12-25T18:43:53.880Z,101792.78
2022-12-25T18:46:24.704Z,101798.97
2022-12-25T18:48:53.978Z,101799.25
2022-12-25T18:51:21.289Z,101802.25
2022-12-25T18:53:48.593Z,101808.00
2022-12-25T18:56:18.070Z,101794.72
2022-12-25T18:58:47.430Z,101802.81
2022-12-25T19:01:17.174Z,101803.38
2022-12-25T19:03:45.982Z,101796.53
2022-12-25T19:06:22.382Z,101792.75
2022-12-25T19:08:49.732Z,101792.56
2022-12-25T19:11:17.794Z,101790.94
2022-12-25T19:13:46.112Z,101797.94
2022-12-25T19:16:14.270Z,101804.78
2022-12-25T19:18:43.199Z,101806.50
2022-12-25T19:21:10.694Z,101809.72
2022-12-25T19:23:38.670Z,101804.28
2022-12-25T19:26:07.988Z,101799.41
2022-12-25T19:28:36.104Z,101795.38
2022-12-25T19:31:07.538Z,101796.69
2022-12-25T19:33:36.440Z,101796.19
2022-12-25T19:36:07.077Z,101805.19
2022-12-25T19:38:34.483Z,101798.38
2022-12-25T19:41:16.923Z,101794.63
2022-12-25T19:43:47.591Z,101797.59
2022-12-25T19:46:21.133Z,101798.16
2022-12-25T19:48:48.850Z,101794.88
2022-12-25T19:51:37.056Z,101802.22
2022-12-25T19:54:05.929Z,101796.75
2022-12-25T19:56:34.326Z,101795.19
2022-12-25T19:59:02.155Z,101801.75
2022-12-25T20:01:30.161Z,101806.69
2022-12-25T20:03:57.928Z,101808.63
2022-12-25T20:06:28.927Z,101812.34
2022-12-25T20:09:04.177Z,101809.81
2022-12-25T20:11:33.141Z,101808.75
2022-12-25T20:14:00.676Z,101817.50
2022-12-25T20:16:29.326Z,101823.44
2022-12-25T20:18:57.828Z,101820.31
2022-12-25T20:21:27.279Z,101833.34
2022-12-25T20:23:54.877Z,101820.53
2022-12-25T20:26:25.212Z,101816.75
2022-12-25T20:28:52.961Z,101813.31
2022-12-25T20:31:22.749Z,101816.03
2022-12-25T20:33:50.319Z,101823.09
2022-12-25T20:36:18.907Z,101819.53
2022-12-25T20:38:46.717Z,101824.16
2022-12-25T20:41:28.797Z,101829.34
2022-12-25T20:43:57.736Z,101832.28
2022-12-25T20:46:26.502Z,101839.69
2022-12-25T20:48:54.108Z,101826.41
2022-12-25T20:51:24.549Z,101824.16
2022-12-25T20:53:52.901Z,101831.75
2022-12-25T20:56:23.996Z,101835.50
2022-12-25T20:58:59.914Z,101838.78
2022-12-25T21:01:29.475Z,101834.72
2022-12-25T21:03:58.014Z,101837.72
2022-12-25T21:06:25.709Z,101836.72
2022-12-25T21:08:53.121Z,101842.13
2022-12-25T21:11:21.599Z,101839.38
2022-12-25T21:13:49.560Z,101849.72
2022-12-25T21:16:22.527Z,101846.47
2022-12-25T21:18:53.875Z,101841.63
2022-12-25T21:21:21.974Z,101838.91
2022-12-25T21:23:49.534Z,101841.13
2022-12-25T21:26:25.782Z,101842.13
2022-12-25T21:28:57.307Z,101846.47
2022-12-25T21:31:25.208Z,101859.41
2022-12-25T21:33:54.080Z,101839.13
2022-12-25T21:36:24.552Z,101844.81
2022-12-25T21:38:55.998Z,101842.69
2022-12-25T21:41:24.005Z,101849.44
2022-12-25T21:43:51.788Z,101847.03
2022-12-25T21:46:19.329Z,101841.25
2022-12-25T21:48:46.766Z,101842.69
2022-12-25T21:51:34.239Z,101852.41
2022-12-25T21:54:02.002Z,101852.13
2022-12-25T21:56:31.098Z,101849.19
2022-12-25T21:59:03.224Z,101856.25
2022-12-25T22:01:31.164Z,101850.59
2022-12-25T22:04:03.720Z,101853.28
2022-12-25T22:06:49.813Z,101847.06
2022-12-25T22:09:17.688Z,101857.16
2022-12-25T22:12:03.753Z,101857.38
2022-12-25T22:14:53.717Z,101851.91
2022-12-25T22:17:46.346Z,101849.19
2022-12-25T22:20:28.386Z,101852.16
2022-12-25T22:22:55.925Z,101855.19
2022-12-25T22:25:24.312Z,101857.13
2022-12-25T22:27:52.227Z,101855.75
2022-12-25T22:30:27.847Z,101861.78
2022-12-25T22:32:55.992Z,101852.22
2022-12-25T22:35:23.640Z,101859.03
2022-12-25T22:37:51.319Z,101870.13
2022-12-25T22:40:20.161Z,101870.69
2022-12-25T22:42:47.752Z,101869.59
2022-12-25T22:45:15.420Z,101863.66
2022-12-25T22:47:42.791Z,101865.81
2022-12-25T22:50:11.982Z,101865.28
2022-12-25T22:52:39.324Z,101865.81
2022-12-25T22:55:08.395Z,101862.88
2022-12-25T22:57:36.419Z,101864.53
2022-12-25T23:00:05.857Z,101859.38
2022-12-25T23:02:35.169Z,101860.44
2022-12-25T23:05:03.395Z,101857.22
2022-12-25T23:07:30.865Z,101853.44
2022-12-25T23:09:58.158Z,101850.47
2022-12-25T23:12:48.685Z,101860.53
2022-12-25T23:15:16.043Z,101857.81
2022-12-25T23:18:01.869Z,101851.31
2022-12-25T23:20:47.815Z,101853.16
2022-12-25T23:23:35.040Z,101848.31
2022-12-25T23:26:08.798Z,101854.00
2022-12-25T23:28:56.916Z,101864.56
2022-12-25T23:31:28.946Z,101861.81
2022-12-25T23:33:56.583Z,101864.53
2022-12-25T23:36:24.501Z,101861.50
2022-12-25T23:38:51.995Z,101863.97
2022-12-25T23:41:19.761Z,101855.31
2022-12-25T23:43:47.126Z,101867.53
2022-12-25T23:46:15.232Z,101867.28
2022-12-25T23:48:42.882Z,101865.03
2022-12-25T23:51:10.204Z,101855.31
2022-12-25T23:53:37.573Z,101863.47
2022-12-25T23:56:05.656Z,101856.66
2022-12-25T23:58:34.075Z,101853.13
